Time;durP1;ratioP1;P1;durP2;ratioP2;P2;SDS_P1;SDS_P2;PMS_P1;PMS_P2;Temp;Humidity;BMP_temperature;BMP_pressure;BME280_temperature;BME280_humidity;BME280_pressure;Samples;Min_cycle;Max_cycle;Signal;HPM_P1;HPM_P2
2022/01/21 00:02:16;;;;;;;21.53;7.33;;;1.20;99.90;;;;;;5050224;28;20219;-66
2022/01/21 00:04:44;;;;;;;22.77;6.60;;;1.20;99.90;;;;;;5047715;28;20205;-65
2022/01/21 00:07:13;;;;;;;23.37;7.17;;;1.20;99.90;;;;;;5053192;28;20288;-66
2022/01/21 00:09:46;;;;;;;26.13;7.17;;;1.10;99.90;;;;;;5049270;28;20209;-66
2022/01/21 00:12:15;;;;;;;21.70;7.20;;;1.10;99.90;;;;;;5038768;28;20197;-66
2022/01/21 00:14:46;;;;;;;20.00;6.63;;;1.00;99.90;;;;;;5044873;28;20203;-66
2022/01/21 00:17:16;;;;;;;27.87;7.70;;;0.90;99.90;;;;;;5062897;28;20204;-66
2022/01/21 00:19:47;;;;;;;22.83;6.93;;;0.80;99.90;;;;;;5050959;28;20251;-66
2022/01/21 00:30:37;;;;;;;13.67;5.93;;;0.60;99.90;;;;;;5042325;28;20275;-65
2022/01/21 00:33:06;;;;;;;25.70;6.33;;;0.50;99.90;;;;;;5042616;28;20224;-66
2022/01/21 00:35:34;;;;;;;17.83;5.57;;;0.50;99.90;;;;;;5049068;28;20231;-66
2022/01/21 00:38:02;;;;;;;16.73;5.87;;;0.50;99.90;;;;;;5052816;28;20200;-66
2022/01/21 00:40:33;;;;;;;32.93;6.43;;;0.50;99.90;;;;;;5046108;28;20204;-66
2022/01/21 00:43:16;;;;;;;16.93;5.90;;;0.50;99.90;;;;;;5046698;28;20196;-66
2022/01/21 00:45:46;;;;;;;21.13;5.40;;;0.50;99.90;;;;;;5047450;28;20231;-66
2022/01/21 00:48:15;;;;;;;23.33;5.10;;;0.50;99.90;;;;;;5041614;28;20246;-66
2022/01/21 00:50:44;;;;;;;12.10;4.93;;;0.50;99.90;;;;;;5046736;28;20220;-65
2022/01/21 00:53:12;;;;;;;21.77;5.40;;;0.40;99.90;;;;;;5050391;28;20211;-65
2022/01/21 00:55:41;;;;;;;26.50;6.10;;;0.40;99.90;;;;;;5046034;28;20227;-65
2022/01/21 00:58:09;;;;;;;26.33;6.07;;;0.40;99.90;;;;;;5047115;28;20243;-66
2022/01/21 01:00:38;;;;;;;29.10;5.80;;;0.40;99.90;;;;;;5046280;28;20216;-65
2022/01/21 01:03:14;;;;;;;19.07;5.80;;;0.40;99.90;;;;;;5049149;28;20210;-66
2022/01/21 01:06:21;;;;;;;19.47;5.53;;;0.40;99.90;;;;;;5046645;28;20207;-66
2022/01/21 01:08:51;;;;;;;24.07;5.33;;;0.50;99.90;;;;;;5044311;28;20256;-66
2022/01/21 01:11:28;;;;;;;14.73;5.20;;;0.50;99.90;;;;;;5046252;28;20185;-66
2022/01/21 01:22:18;;;;;;;18.50;5.93;;;0.50;99.90;;;;;;5046102;28;20287;-66
2022/01/21 01:27:38;;;;;;;16.90;5.37;;;0.40;99.90;;;;;;5043194;28;20299;-65
2022/01/21 01:30:10;;;;;;;16.10;5.67;;;0.40;99.90;;;;;;5045893;28;20284;-65
2022/01/21 01:32:39;;;;;;;18.80;4.70;;;0.50;99.90;;;;;;5049362;28;20220;-65
2022/01/21 01:35:11;;;;;;;24.83;5.47;;;0.40;99.90;;;;;;5050294;28;20572;-66
2022/01/21 01:37:58;;;;;;;13.83;4.67;;;0.40;99.90;;;;;;5043179;28;20193;-65
2022/01/21 01:40:30;;;;;;;13.90;4.83;;;0.50;99.90;;;;;;5049371;28;20696;-65
2022/01/21 01:51:20;;;;;;;18.53;5.10;;;0.90;99.90;;;;;;5042643;28;20276;-66
2022/01/21 01:53:52;;;;;;;21.07;4.60;;;1.00;99.90;;;;;;5046445;28;20203;-66
2022/01/21 01:56:24;;;;;;;15.37;4.00;;;1.10;99.90;;;;;;5045389;28;20189;-66
2022/01/21 01:58:52;;;;;;;22.00;5.37;;;1.20;99.90;;;;;;5046404;28;20276;-66
2022/01/21 02:01:21;;;;;;;17.57;4.40;;;1.20;99.90;;;;;;5040893;28;20315;-66
2022/01/21 02:03:49;;;;;;;17.33;3.87;;;1.20;99.90;;;;;;5041875;28;20212;-66
2022/01/21 02:06:19;;;;;;;13.10;4.17;;;1.20;99.90;;;;;;5044888;28;20197;-66
2022/01/21 02:08:48;;;;;;;19.87;4.57;;;1.30;99.90;;;;;;5045198;28;20203;-66
2022/01/21 02:11:16;;;;;;;27.13;4.00;;;1.30;99.90;;;;;;5043732;28;20203;-65
2022/01/21 02:13:48;;;;;;;15.30;3.87;;;1.30;99.90;;;;;;5044904;28;20200;-65
2022/01/21 02:16:33;;;;;;;9.97;3.40;;;1.30;99.90;;;;;;5047095;28;20280;-66
2022/01/21 02:21:48;;;;;;;13.27;3.73;;;1.20;99.90;;;;;;5038829;28;20660;-65
2022/01/21 02:24:22;;;;;;;18.27;4.00;;;1.20;99.90;;;;;;5059931;28;20277;-66
2022/01/21 02:26:52;;;;;;;15.60;4.13;;;1.10;99.90;;;;;;5041470;28;20288;-66
2022/01/21 02:29:28;;;;;;;11.67;4.07;;;1.10;99.90;;;;;;5041175;28;20200;-66
2022/01/21 02:31:58;;;;;;;13.83;4.13;;;1.10;99.90;;;;;;5047707;28;20226;-66
2022/01/21 02:34:30;;;;;;;10.10;3.80;;;1.00;99.90;;;;;;5044142;28;20239;-66
2022/01/21 02:37:00;;;;;;;10.83;4.03;;;0.90;99.90;;;;;;5042038;28;20185;-66
2022/01/21 02:39:28;;;;;;;9.87;3.47;;;0.90;99.90;;;;;;5042491;28;20228;-66
2022/01/21 02:41:56;;;;;;;14.97;3.50;;;1.00;99.90;;;;;;5041439;28;20230;-66
2022/01/21 02:44:25;;;;;;;12.07;3.03;;;1.10;99.90;;;;;;5041311;28;20361;-66
2022/01/21 02:46:56;;;;;;;22.17;3.53;;;1.30;99.90;;;;;;5044941;28;20188;-66
2022/01/21 02:49:25;;;;;;;16.77;3.17;;;1.40;99.90;;;;;;5042800;28;20200;-66
2022/01/21 02:51:55;;;;;;;21.83;3.00;;;1.40;99.90;;;;;;5046093;28;20656;-66
2022/01/21 02:54:25;;;;;;;14.73;2.93;;;1.40;99.90;;;;;;5048151;28;20276;-66
2022/01/21 02:56:53;;;;;;;15.20;3.10;;;1.40;99.90;;;;;;5023684;28;20285;-66
2022/01/21 02:59:21;;;;;;;20.07;2.87;;;1.40;99.90;;;;;;5047711;28;20200;-66
2022/01/21 03:01:50;;;;;;;19.67;3.50;;;1.40;99.90;;;;;;5047506;28;20576;-66
2022/01/21 03:04:26;;;;;;;19.50;3.87;;;1.30;99.90;;;;;;5038743;28;20204;-66
2022/01/21 03:06:54;;;;;;;16.87;2.90;;;1.30;99.90;;;;;;5043074;28;20196;-66
2022/01/21 03:09:24;;;;;;;19.83;2.93;;;1.30;99.90;;;;;;5047064;28;20586;-66
2022/01/21 03:11:52;;;;;;;9.97;2.87;;;1.30;99.90;;;;;;5036101;28;20201;-66
2022/01/21 03:14:21;;;;;;;11.07;2.90;;;1.40;99.90;;;;;;5038048;28;20769;-66
2022/01/21 03:16:49;;;;;;;10.63;3.10;;;1.40;99.90;;;;;;5041983;28;20299;-66
2022/01/21 03:19:17;;;;;;;14.83;3.30;;;1.50;99.90;;;;;;5042279;28;20247;-66
2022/01/21 03:21:46;;;;;;;16.03;3.17;;;1.60;99.90;;;;;;5045366;28;20204;-66
2022/01/21 03:24:15;;;;;;;19.10;3.00;;;1.60;99.90;;;;;;5047904;28;20201;-66
2022/01/21 03:26:44;;;;;;;11.10;3.00;;;1.60;99.90;;;;;;5048133;28;20195;-66
2022/01/21 03:29:12;;;;;;;8.20;2.90;;;1.60;99.90;;;;;;5051242;28;20201;-66
2022/01/21 03:31:41;;;;;;;15.37;3.17;;;1.50;99.90;;;;;;5046787;28;20223;-66
2022/01/21 03:34:09;;;;;;;10.60;3.07;;;1.40;99.90;;;;;;5050867;28;20236;-66
2022/01/21 03:36:40;;;;;;;15.17;3.30;;;1.30;99.90;;;;;;5049961;28;20196;-66
2022/01/21 03:39:08;;;;;;;10.47;3.20;;;1.20;99.90;;;;;;5046406;28;20200;-65
2022/01/21 03:41:36;;;;;;;6.07;3.00;;;1.10;99.90;;;;;;5048897;28;20586;-65
2022/01/21 03:44:06;;;;;;;9.03;2.63;;;1.00;99.90;;;;;;5047896;28;20215;-66
2022/01/21 03:46:35;;;;;;;10.50;3.23;;;1.00;99.90;;;;;;5044766;28;20207;-65
2022/01/21 03:49:05;;;;;;;14.63;2.97;;;0.90;99.90;;;;;;5047249;28;20193;-66
2022/01/21 03:51:33;;;;;;;11.20;3.30;;;0.90;99.90;;;;;;5046712;28;20778;-66
2022/01/21 03:54:02;;;;;;;9.87;3.03;;;1.00;99.90;;;;;;5046305;28;20200;-66
2022/01/21 03:56:30;;;;;;;13.13;3.13;;;1.10;99.90;;;;;;5048431;28;20211;-65
2022/01/21 03:58:58;;;;;;;13.63;3.47;;;1.10;99.90;;;;;;5043341;28;20284;-65
2022/01/21 04:01:29;;;;;;;12.73;3.33;;;1.20;99.90;;;;;;5048060;28;20241;-66
2022/01/21 04:03:57;;;;;;;11.50;3.43;;;1.20;99.90;;;;;;5040176;28;20239;-65
2022/01/21 04:06:26;;;;;;;15.10;3.20;;;1.20;99.90;;;;;;5044964;28;20212;-66
2022/01/21 04:08:54;;;;;;;18.17;3.57;;;1.30;99.90;;;;;;5048985;28;20193;-66
2022/01/21 04:11:22;;;;;;;14.47;3.57;;;1.30;99.90;;;;;;5047987;28;20195;-66
2022/01/21 04:13:52;;;;;;;17.07;3.80;;;1.30;99.90;;;;;;5045491;28;20203;-66
2022/01/21 04:16:21;;;;;;;12.97;3.10;;;1.30;99.90;;;;;;5047228;28;20311;-66
2022/01/21 04:18:51;;;;;;;16.93;3.73;;;1.30;99.90;;;;;;5048134;28;20196;-66
2022/01/21 04:21:20;;;;;;;17.50;3.77;;;1.30;99.90;;;;;;5050936;28;20307;-65
2022/01/21 04:23:49;;;;;;;12.87;3.53;;;1.30;99.90;;;;;;5046152;28;20195;-66
2022/01/21 04:26:17;;;;;;;24.43;3.70;;;1.30;99.90;;;;;;5045529;28;20288;-66
2022/01/21 04:28:46;;;;;;;9.63;3.23;;;1.20;99.90;;;;;;5042273;28;20196;-65
2022/01/21 04:31:14;;;;;;;12.97;4.07;;;1.10;99.90;;;;;;5048306;28;21072;-66
2022/01/21 04:33:45;;;;;;;9.67;3.33;;;1.00;99.90;;;;;;5041482;28;20240;-65
2022/01/21 04:36:16;;;;;;;10.37;3.57;;;0.90;99.90;;;;;;5045152;28;20200;-66
2022/01/21 04:38:44;;;;;;;16.33;3.70;;;0.80;99.90;;;;;;5047441;28;20224;-66
2022/01/21 04:41:42;;;;;;;9.93;3.83;;;0.70;99.90;;;;;;5045589;28;20219;-66
2022/01/21 04:49:39;;;;;;;24.43;4.57;;;0.60;99.90;;;;;;5044137;28;20670;-66
2022/01/21 04:52:08;;;;;;;11.70;3.80;;;0.50;99.90;;;;;;5057334;28;20202;-66
2022/01/21 04:54:37;;;;;;;8.53;3.63;;;0.50;99.90;;;;;;5051445;28;20203;-65
2022/01/21 04:57:07;;;;;;;13.20;3.63;;;0.50;99.90;;;;;;5043468;28;20193;-66
2022/01/21 04:59:37;;;;;;;17.57;4.80;;;0.50;99.90;;;;;;5045432;28;20280;-66
2022/01/21 05:02:06;;;;;;;17.07;5.17;;;0.40;99.90;;;;;;5041906;28;20570;-66
2022/01/21 05:04:35;;;;;;;21.80;4.43;;;0.50;99.90;;;;;;5053886;28;20195;-66
2022/01/21 05:07:06;;;;;;;21.10;4.97;;;0.40;99.90;;;;;;5045390;28;20203;-66
2022/01/21 05:09:36;;;;;;;14.50;4.80;;;0.40;99.90;;;;;;5047826;28;20603;-65
2022/01/21 05:12:09;;;;;;;17.30;4.63;;;0.40;99.90;;;;;;5042393;28;20199;-66
2022/01/21 05:14:52;;;;;;;13.87;5.07;;;0.40;99.90;;;;;;5045329;28;20288;-66
2022/01/21 05:17:22;;;;;;;17.07;4.63;;;0.40;99.90;;;;;;5046633;28;20219;-66
2022/01/21 05:19:51;;;;;;;31.80;5.30;;;0.30;99.90;;;;;;5038933;28;20207;-65
2022/01/21 05:22:19;;;;;;;16.33;5.07;;;0.30;99.90;;;;;;5045694;28;20718;-66
2022/01/21 05:24:49;;;;;;;15.83;5.20;;;0.30;99.90;;;;;;5047727;28;20200;-65
2022/01/21 05:27:17;;;;;;;15.17;4.87;;;0.20;99.90;;;;;;5046487;28;20751;-65
2022/01/21 05:29:46;;;;;;;18.53;5.00;;;0.20;99.90;;;;;;5046364;28;20209;-65
2022/01/21 05:32:14;;;;;;;17.00;5.00;;;0.20;99.90;;;;;;5048565;28;20272;-66
2022/01/21 05:34:42;;;;;;;16.07;5.50;;;0.20;99.90;;;;;;5045111;28;20284;-65
2022/01/21 05:37:11;;;;;;;21.27;5.00;;;0.30;99.90;;;;;;5043880;28;20580;-66
2022/01/21 05:39:39;;;;;;;20.60;5.30;;;0.30;99.90;;;;;;5047039;28;20199;-66
2022/01/21 05:42:09;;;;;;;14.00;5.37;;;0.30;99.90;;;;;;5045484;28;20217;-66
2022/01/21 05:47:25;;;;;;;17.43;5.70;;;0.40;99.90;;;;;;5040484;28;20201;-65
2022/01/21 05:49:54;;;;;;;15.37;5.43;;;0.40;99.90;;;;;;5046315;28;20730;-66
2022/01/21 05:52:35;;;;;;;18.50;5.70;;;0.40;99.90;;;;;;5046113;28;20675;-66
2022/01/21 05:55:09;;;;;;;21.43;6.13;;;0.40;99.90;;;;;;5041544;28;20188;-66
2022/01/21 05:57:39;;;;;;;14.83;6.50;;;0.40;99.90;;;;;;5046023;28;20279;-65
2022/01/21 06:00:09;;;;;;;17.20;6.03;;;0.50;99.90;;;;;;5046556;28;20250;-66
2022/01/21 06:02:38;;;;;;;19.93;6.30;;;0.40;99.90;;;;;;5039231;28;20235;-65
2022/01/21 06:05:07;;;;;;;14.67;6.20;;;0.40;99.90;;;;;;5047224;28;20197;-66
2022/01/21 06:07:36;;;;;;;18.97;6.00;;;0.30;99.90;;;;;;5046318;28;20631;-66
2022/01/21 06:10:05;;;;;;;13.73;6.07;;;0.40;99.90;;;;;;5045978;28;20203;-66
2022/01/21 06:12:33;;;;;;;21.77;5.50;;;0.40;99.90;;;;;;5043686;28;20195;-65
2022/01/21 06:15:04;;;;;;;15.57;5.57;;;0.40;99.90;;;;;;5050859;28;20675;-65
2022/01/21 06:17:32;;;;;;;17.13;5.63;;;0.40;99.90;;;;;;5048156;28;20272;-66
2022/01/21 06:20:00;;;;;;;18.63;5.43;;;0.40;99.90;;;;;;5040015;28;20665;-66
2022/01/21 06:22:28;;;;;;;22.77;5.70;;;0.40;99.90;;;;;;5047295;28;20241;-66
2022/01/21 06:24:57;;;;;;;15.80;5.60;;;0.40;99.90;;;;;;5047686;28;20250;-66
2022/01/21 06:27:27;;;;;;;18.80;5.37;;;0.50;99.90;;;;;;5046279;28;20737;-66
2022/01/21 06:29:58;;;;;;;22.53;6.00;;;0.50;99.90;;;;;;5045938;28;20200;-66
2022/01/21 06:32:28;;;;;;;20.03;5.70;;;0.50;99.90;;;;;;5041157;28;20200;-66
2022/01/21 06:35:00;;;;;;;18.80;5.63;;;0.60;99.90;;;;;;5042217;28;20195;-65
2022/01/21 06:37:31;;;;;;;14.30;5.87;;;0.60;99.90;;;;;;5043136;28;20236;-66
2022/01/21 06:40:06;;;;;;;21.07;5.47;;;0.70;99.90;;;;;;5044359;28;20193;-66
2022/01/21 06:42:37;;;;;;;26.70;10.77;;;0.70;99.90;;;;;;5048489;28;20277;-66
2022/01/21 06:45:09;;;;;;;38.30;12.53;;;0.80;99.90;;;;;;5044031;28;20205;-65
2022/01/21 06:47:38;;;;;;;43.20;16.77;;;0.80;99.90;;;;;;5047152;28;20201;-64
2022/01/21 06:50:13;;;;;;;30.50;12.17;;;0.90;99.90;;;;;;5045815;28;20291;-65
2022/01/21 06:52:42;;;;;;;20.10;7.60;;;1.00;99.90;;;;;;5047396;28;20199;-65
2022/01/21 06:55:11;;;;;;;15.37;6.23;;;1.00;99.90;;;;;;5048034;28;20224;-66
2022/01/21 06:57:40;;;;;;;18.23;6.00;;;1.00;99.90;;;;;;5046261;28;20294;-65
2022/01/21 07:00:13;;;;;;;19.63;6.37;;;1.00;99.90;;;;;;5047512;28;20232;-66
2022/01/21 07:02:44;;;;;;;15.27;6.10;;;0.90;99.90;;;;;;5047925;28;20232;-66
2022/01/21 07:05:17;;;;;;;18.13;5.93;;;0.90;99.90;;;;;;5051328;28;20199;-66
2022/01/21 07:07:47;;;;;;;20.23;6.27;;;0.80;99.90;;;;;;5050945;28;20215;-66
2022/01/21 07:10:17;;;;;;;14.93;6.70;;;0.80;99.90;;;;;;5047180;28;20205;-66
2022/01/21 07:12:47;;;;;;;20.23;7.23;;;0.80;99.90;;;;;;5044545;28;20263;-65
2022/01/21 07:15:25;;;;;;;23.17;7.40;;;0.70;99.90;;;;;;5054491;28;20200;-66
2022/01/21 07:17:57;;;;;;;25.93;5.93;;;0.70;99.90;;;;;;5043604;28;20205;-66
2022/01/21 07:20:26;;;;;;;20.30;6.33;;;0.70;99.90;;;;;;5055331;28;20196;-66
2022/01/21 07:23:16;;;;;;;21.40;6.60;;;0.60;99.90;;;;;;5054732;28;20706;-66
2022/01/21 07:25:46;;;;;;;21.97;6.80;;;0.60;99.90;;;;;;5039438;28;20208;-66
2022/01/21 07:28:22;;;;;;;19.73;7.03;;;0.60;99.90;;;;;;5055842;28;20262;-65
2022/01/21 07:30:51;;;;;;;24.50;6.33;;;0.70;99.90;;;;;;5046151;28;20227;-66
2022/01/21 07:33:28;;;;;;;18.87;6.77;;;0.60;99.90;;;;;;5050845;28;20227;-65
2022/01/21 07:35:57;;;;;;;23.50;7.33;;;0.60;99.90;;;;;;5042916;28;20283;-66
2022/01/21 07:38:40;;;;;;;19.30;7.50;;;0.60;99.90;;;;;;5033257;28;20247;-66
2022/01/21 07:41:08;;;;;;;32.40;8.43;;;0.60;99.90;;;;;;5049469;28;20232;-66
2022/01/21 07:43:41;;;;;;;31.73;10.60;;;0.70;99.90;;;;;;5043606;28;20432;-66
2022/01/21 07:46:12;;;;;;;27.23;9.00;;;0.70;99.90;;;;;;5035982;28;20646;-66
2022/01/21 07:48:46;;;;;;;23.43;7.83;;;0.80;99.90;;;;;;5049974;28;20206;-66
2022/01/21 07:51:16;;;;;;;20.73;7.83;;;0.90;99.90;;;;;;5049633;28;20236;-66
2022/01/21 07:53:48;;;;;;;19.83;8.30;;;0.90;99.90;;;;;;5047324;28;20204;-65
2022/01/21 07:56:21;;;;;;;19.00;7.87;;;0.90;99.90;;;;;;5048824;28;20710;-66
2022/01/21 07:58:54;;;;;;;17.87;6.97;;;0.90;99.90;;;;;;5042753;28;20201;-66
2022/01/21 08:01:24;;;;;;;12.67;6.60;;;1.00;99.90;;;;;;5041127;28;20750;-65
2022/01/21 08:03:56;;;;;;;19.90;7.20;;;1.10;99.90;;;;;;5062166;28;20213;-65
2022/01/21 08:06:24;;;;;;;27.83;8.43;;;1.20;99.90;;;;;;5044868;28;20201;-66
2022/01/21 08:08:54;;;;;;;28.37;8.60;;;1.20;99.90;;;;;;5040560;28;20207;-66
2022/01/21 08:11:25;;;;;;;23.20;7.27;;;1.30;99.90;;;;;;5042392;28;20254;-66
2022/01/21 08:13:58;;;;;;;17.53;7.30;;;1.30;99.90;;;;;;5046380;28;20272;-66
2022/01/21 08:16:33;;;;;;;17.33;7.67;;;1.40;99.90;;;;;;5043720;28;20232;-66
2022/01/21 08:19:08;;;;;;;16.37;6.83;;;1.40;99.90;;;;;;5044299;28;20193;-66
2022/01/21 08:21:38;;;;;;;16.90;6.80;;;1.50;99.90;;;;;;5046132;28;20228;-66
2022/01/21 08:24:09;;;;;;;31.20;7.83;;;1.50;99.90;;;;;;5046338;28;20228;-66
2022/01/21 08:26:39;;;;;;;15.77;6.97;;;1.60;99.90;;;;;;5041872;28;20272;-66
2022/01/21 08:29:13;;;;;;;32.53;7.43;;;1.70;99.90;;;;;;5047624;28;21490;-66
2022/01/21 08:31:42;;;;;;;20.87;6.83;;;1.70;99.90;;;;;;5038897;28;20838;-65
2022/01/21 08:34:14;;;;;;;18.20;7.07;;;1.80;99.90;;;;;;5046172;28;21548;-66
2022/01/21 08:36:46;;;;;;;21.43;6.70;;;1.80;99.90;;;;;;5038232;28;20229;-65
2022/01/21 08:39:17;;;;;;;18.87;7.10;;;1.80;99.90;;;;;;5046330;28;20208;-66
2022/01/21 08:41:52;;;;;;;18.63;6.40;;;1.80;99.90;;;;;;5044825;28;20292;-66
2022/01/21 08:44:22;;;;;;;23.00;7.03;;;1.90;99.90;;;;;;5036429;28;20224;-65
2022/01/21 08:46:51;;;;;;;25.47;7.80;;;2.00;99.90;;;;;;5043785;28;20194;-66
2022/01/21 08:49:43;;;;;;;17.47;7.27;;;2.10;99.90;;;;;;5041690;28;20324;-66
2022/01/21 08:52:19;;;;;;;24.40;7.93;;;2.10;99.90;;;;;;5041762;28;20773;-66
2022/01/21 08:54:53;;;;;;;21.47;8.30;;;2.10;99.90;;;;;;5039457;28;20192;-66
2022/01/21 08:57:22;;;;;;;18.00;7.20;;;2.20;99.90;;;;;;5048096;28;20240;-66
2022/01/21 08:59:54;;;;;;;23.23;7.30;;;2.30;99.90;;;;;;5042957;28;20225;-66
2022/01/21 09:02:23;;;;;;;19.50;8.40;;;2.30;99.90;;;;;;5040031;28;20217;-66
2022/01/21 09:05:01;;;;;;;22.73;8.40;;;2.40;99.90;;;;;;5045469;28;20267;-66
2022/01/21 09:07:30;;;;;;;20.17;7.80;;;2.50;99.90;;;;;;5046150;28;20664;-66
2022/01/21 09:10:00;;;;;;;18.90;7.10;;;2.60;99.90;;;;;;5044888;28;20212;-66
2022/01/21 09:12:31;;;;;;;15.13;6.87;;;2.60;99.90;;;;;;5039878;28;20204;-66
2022/01/21 09:15:02;;;;;;;23.93;7.77;;;2.70;99.90;;;;;;5043790;28;20246;-66
2022/01/21 09:17:36;;;;;;;21.60;7.17;;;2.90;99.90;;;;;;5042796;28;20298;-66
2022/01/21 09:20:12;;;;;;;19.80;9.27;;;3.10;99.90;;;;;;5053678;28;20183;-65
2022/01/21 09:22:41;;;;;;;18.03;8.47;;;3.30;99.90;;;;;;5042282;28;20283;-65
2022/01/21 09:25:11;;;;;;;22.13;8.33;;;3.40;99.90;;;;;;5048356;28;20252;-66
2022/01/21 09:27:41;;;;;;;18.53;8.17;;;3.40;99.90;;;;;;5049512;28;20188;-66
2022/01/21 09:30:14;;;;;;;19.77;7.33;;;3.40;99.90;;;;;;5044817;28;20209;-66
2022/01/21 09:32:43;;;;;;;23.00;7.77;;;3.40;99.90;;;;;;5047842;28;20315;-66
2022/01/21 09:35:21;;;;;;;21.83;8.67;;;3.40;99.90;;;;;;5044147;28;20208;-65
2022/01/21 09:37:49;;;;;;;18.03;7.00;;;3.40;99.90;;;;;;5041102;28;20255;-66
2022/01/21 09:40:44;;;;;;;14.33;6.17;;;3.60;99.90;;;;;;5042346;28;20200;-66
2022/01/21 09:43:16;;;;;;;22.97;6.47;;;3.90;99.90;;;;;;5044269;28;20228;-66
2022/01/21 09:45:51;;;;;;;12.87;5.83;;;4.00;99.90;;;;;;5044395;28;20216;-66
2022/01/21 09:48:24;;;;;;;10.80;5.13;;;4.00;99.90;;;;;;5038072;28;20778;-66
2022/01/21 09:50:58;;;;;;;17.83;6.53;;;4.10;99.90;;;;;;5036700;28;20231;-66
2022/01/21 09:53:33;;;;;;;21.33;6.97;;;4.10;99.90;;;;;;5042505;28;20204;-66
2022/01/21 09:56:06;;;;;;;21.23;5.90;;;4.00;99.90;;;;;;5045300;28;20197;-64
2022/01/21 09:58:34;;;;;;;18.83;5.60;;;4.10;99.90;;;;;;5046125;28;20288;-67
2022/01/21 10:01:08;;;;;;;13.93;5.93;;;4.30;99.90;;;;;;5042691;28;20200;-66
2022/01/21 10:03:44;;;;;;;17.07;5.53;;;4.60;99.90;;;;;;5045141;28;20203;-66
2022/01/21 10:06:14;;;;;;;14.10;4.10;;;4.90;99.90;;;;;;5040513;28;20204;-66
2022/01/21 10:08:49;;;;;;;8.00;3.80;;;5.20;99.90;;;;;;5045057;28;20281;-66
2022/01/21 10:11:20;;;;;;;14.47;4.33;;;5.30;99.90;;;;;;5040245;28;20231;-66
2022/01/21 10:13:51;;;;;;;9.40;3.80;;;5.50;99.90;;;;;;5043457;28;20203;-66
2022/01/21 10:16:20;;;;;;;20.23;4.40;;;5.50;99.90;;;;;;5042420;28;20212;-66
2022/01/21 10:19:11;;;;;;;15.63;4.80;;;5.60;99.90;;;;;;5045147;28;20207;-66
2022/01/21 10:21:44;;;;;;;11.93;4.23;;;5.80;99.90;;;;;;5045254;28;20260;-66
2022/01/21 10:24:16;;;;;;;9.97;3.60;;;6.10;99.90;;;;;;5037992;28;20296;-66
2022/01/21 10:26:51;;;;;;;8.30;2.97;;;6.50;99.90;;;;;;5043854;28;20371;-66
2022/01/21 10:29:35;;;;;;;13.23;3.50;;;6.90;99.90;;;;;;5050690;28;20264;-66
2022/01/21 10:32:08;;;;;;;7.53;3.27;;;7.30;99.90;;;;;;5040757;28;20254;-67
2022/01/21 10:34:44;;;;;;;10.07;2.80;;;7.50;99.90;;;;;;5038450;28;20289;-66
2022/01/21 10:37:32;;;;;;;15.10;3.00;;;7.60;99.90;;;;;;5046219;28;20267;-67
2022/01/21 10:40:06;;;;;;;6.50;2.83;;;7.60;99.90;;;;;;5042512;28;20201;-67
2022/01/21 10:42:36;;;;;;;6.53;2.53;;;7.70;99.90;;;;;;5048294;28;20207;-66
2022/01/21 10:45:08;;;;;;;10.47;2.60;;;7.60;99.90;;;;;;5026652;28;20644;-66
2022/01/21 10:47:39;;;;;;;8.60;3.23;;;7.50;99.90;;;;;;5039678;28;20207;-66
2022/01/21 10:50:13;;;;;;;9.63;3.30;;;7.30;99.90;;;;;;5040048;28;20264;-65
2022/01/21 10:52:50;;;;;;;10.70;3.23;;;7.20;99.90;;;;;;5038304;28;20301;-66
2022/01/21 10:55:30;;;;;;;8.80;3.17;;;7.10;99.90;;;;;;5044616;28;21153;-66
2022/01/21 10:58:12;;;;;;;8.23;3.03;;;7.00;99.90;;;;;;5044895;28;20196;-67
2022/01/21 11:00:58;;;;;;;11.53;3.07;;;6.80;99.90;;;;;;5043688;28;20181;-66
2022/01/21 11:03:30;;;;;;;10.47;3.10;;;6.70;99.90;;;;;;5040704;28;20188;-67
2022/01/21 11:06:11;;;;;;;8.90;3.10;;;6.70;99.90;;;;;;5045349;28;20289;-66
2022/01/21 11:08:43;;;;;;;9.23;3.47;;;6.70;99.90;;;;;;5045531;28;20201;-66
2022/01/21 11:11:13;;;;;;;10.73;3.27;;;6.60;99.90;;;;;;5042565;28;20276;-65
2022/01/21 11:13:44;;;;;;;11.60;3.30;;;6.60;99.90;;;;;;5041723;28;20196;-68
2022/01/21 11:16:19;;;;;;;16.17;3.50;;;6.70;99.90;;;;;;5042363;28;20683;-66
2022/01/21 11:19:15;;;;;;;17.43;5.77;;;6.80;99.90;;;;;;5045364;28;20205;-66
2022/01/21 11:21:51;;;;;;;15.13;4.93;;;7.00;99.90;;;;;;5057975;28;20291;-66
2022/01/21 11:24:24;;;;;;;12.10;4.23;;;7.00;99.90;;;;;;5045450;28;20207;-66
2022/01/21 11:27:09;;;;;;;16.90;4.93;;;7.00;99.90;;;;;;5041328;28;20201;-66
2022/01/21 11:29:40;;;;;;;15.60;4.77;;;7.00;99.90;;;;;;5041304;28;20193;-66
2022/01/21 11:32:10;;;;;;;15.07;4.77;;;7.00;99.90;;;;;;5044426;28;20618;-66
2022/01/21 11:34:41;;;;;;;14.00;3.90;;;7.00;99.90;;;;;;5052187;28;20234;-66
2022/01/21 11:37:12;;;;;;;22.23;5.50;;;7.10;99.90;;;;;;5045041;28;20703;-66
2022/01/21 11:39:51;;;;;;;9.63;3.67;;;7.00;99.90;;;;;;5042271;28;20298;-66
2022/01/21 11:42:22;;;;;;;19.10;4.97;;;6.90;99.90;;;;;;5041070;28;20216;-66
2022/01/21 11:45:14;;;;;;;14.90;4.13;;;6.80;99.90;;;;;;5047565;28;20220;-66
2022/01/21 11:48:07;;;;;;;14.50;4.87;;;6.70;99.90;;;;;;5054210;28;20278;-66
2022/01/21 11:50:42;;;;;;;9.10;3.70;;;6.60;99.90;;;;;;5050811;28;20228;-66
2022/01/21 11:53:12;;;;;;;14.57;5.00;;;6.60;99.90;;;;;;5043407;28;20329;-66
2022/01/21 11:55:45;;;;;;;14.97;4.60;;;6.60;99.90;;;;;;5047765;28;20189;-65
2022/01/21 11:58:17;;;;;;;20.77;4.90;;;6.70;99.90;;;;;;5042761;28;20193;-66
2022/01/21 12:00:48;;;;;;;9.40;4.60;;;6.80;99.90;;;;;;5046504;28;20197;-66
2022/01/21 12:03:56;;;;;;;9.57;4.00;;;6.90;99.90;;;;;;5048492;28;20228;-66
2022/01/21 12:07:03;;;;;;;10.53;4.10;;;7.00;99.90;;;;;;5047605;28;20219;-66
2022/01/21 12:09:58;;;;;;;11.87;3.97;;;7.10;99.90;;;;;;5050008;28;20280;-66
2022/01/21 12:13:02;;;;;;;10.07;3.90;;;7.10;99.90;;;;;;5049449;28;20280;-66
2022/01/21 12:19:23;;;;;;;11.07;4.20;;;7.00;99.90;;;;;;5045989;28;20193;-66
2022/01/21 12:22:12;;;;;;;14.77;5.90;;;6.90;99.90;;;;;;5046946;28;20281;-66
2022/01/21 12:24:55;;;;;;;13.37;5.00;;;6.90;99.90;;;;;;5045768;28;20749;-66
2022/01/21 12:27:29;;;;;;;15.03;5.53;;;6.90;99.90;;;;;;5052061;28;20192;-66
2022/01/21 12:30:27;;;;;;;15.73;5.17;;;6.90;99.90;;;;;;5043934;28;20200;-66
2022/01/21 12:33:03;;;;;;;13.97;5.47;;;6.80;99.90;;;;;;5051347;28;20238;-66
2022/01/21 12:35:35;;;;;;;11.70;4.63;;;6.80;99.90;;;;;;5045398;28;20277;-65
2022/01/21 12:41:47;;;;;;;21.17;5.80;;;6.70;99.90;;;;;;5052387;28;20284;-66
2022/01/21 12:44:32;;;;;;;11.27;5.60;;;6.70;99.90;;;;;;5051515;28;20689;-66
2022/01/21 12:47:41;;;;;;;15.07;5.07;;;6.70;99.90;;;;;;5047461;28;20299;-66
2022/01/21 12:50:18;;;;;;;10.60;5.83;;;6.70;99.90;;;;;;5048263;28;20208;-65
2022/01/21 12:52:55;;;;;;;9.73;4.73;;;6.70;99.90;;;;;;5037243;28;20600;-66
2022/01/21 12:58:16;;;;;;;20.57;6.57;;;6.60;99.90;;;;;;5044193;28;20604;-66
2022/01/21 13:00:47;;;;;;;16.10;6.70;;;6.60;99.90;;;;;;5040373;28;20193;-66
2022/01/21 13:03:25;;;;;;;16.10;6.07;;;6.60;99.90;;;;;;5043429;28;20216;-66
2022/01/21 13:06:15;;;;;;;14.47;6.67;;;6.60;99.90;;;;;;5042826;28;20216;-66
2022/01/21 13:08:59;;;;;;;13.20;5.50;;;6.50;99.90;;;;;;5046381;28;20244;-66
2022/01/21 13:11:42;;;;;;;12.03;5.60;;;6.50;99.90;;;;;;5048095;28;20205;-66
2022/01/21 13:14:34;;;;;;;15.60;5.73;;;6.50;99.90;;;;;;5044165;28;20223;-66
2022/01/21 13:17:08;;;;;;;10.57;5.30;;;6.50;99.90;;;;;;5044781;28;20676;-66
2022/01/21 13:19:52;;;;;;;11.50;4.50;;;6.50;99.90;;;;;;5049051;28;20326;-66
2022/01/21 13:22:24;;;;;;;22.33;5.00;;;6.50;99.90;;;;;;5043961;28;20205;-66
2022/01/21 13:25:03;;;;;;;9.87;4.70;;;6.50;99.90;;;;;;5044115;28;20216;-66
2022/01/21 13:27:44;;;;;;;14.60;4.27;;;6.50;99.90;;;;;;5057058;28;20243;-66
2022/01/21 13:30:17;;;;;;;7.30;4.00;;;6.60;99.90;;;;;;5052234;28;20312;-66
2022/01/21 13:32:48;;;;;;;10.83;4.10;;;6.60;99.90;;;;;;5046663;28;20370;-66
2022/01/21 13:35:23;;;;;;;16.70;5.47;;;6.60;99.90;;;;;;5046261;28;20280;-66
2022/01/21 13:38:05;;;;;;;17.70;4.40;;;6.70;99.90;;;;;;5042747;28;20284;-66
2022/01/21 13:40:37;;;;;;;10.53;4.00;;;6.70;99.90;;;;;;5040767;28;20228;-66
2022/01/21 13:43:25;;;;;;;15.47;4.67;;;6.70;99.90;;;;;;5039479;28;20229;-66
2022/01/21 13:45:59;;;;;;;18.87;5.10;;;6.70;99.90;;;;;;5043196;28;20255;-66
2022/01/21 13:48:31;;;;;;;16.57;5.40;;;6.70;99.90;;;;;;5041317;28;20204;-66
2022/01/21 13:51:08;;;;;;;18.57;4.93;;;6.70;99.90;;;;;;5043931;28;20635;-66
2022/01/21 13:53:41;;;;;;;14.53;4.70;;;6.70;99.90;;;;;;5046242;28;20715;-66
2022/01/21 13:56:15;;;;;;;16.60;4.93;;;6.60;99.90;;;;;;5043985;28;20197;-66
2022/01/21 13:58:48;;;;;;;23.33;8.10;;;6.60;99.90;;;;;;5045162;28;20291;-66
2022/01/21 14:01:21;;;;;;;14.83;5.80;;;6.60;99.90;;;;;;5044981;28;20239;-66
2022/01/21 14:03:53;;;;;;;20.87;5.33;;;6.60;99.90;;;;;;5045523;28;20225;-66
2022/01/21 14:06:22;;;;;;;13.87;4.90;;;6.60;99.90;;;;;;5043796;28;21422;-66
2022/01/21 14:08:59;;;;;;;19.10;4.83;;;6.50;99.90;;;;;;5041902;28;20283;-66